sensor_id;sensor_type;location;lat;lon;timestamp;P1;durP1;ratioP1;P2;durP2;ratioP2
22320;SDS011;11328;53.928;18.522;2023-10-19T00:00:41;11.50;;;4.88;;
22320;SDS011;11328;53.928;18.522;2023-10-19T00:03:11;14.52;;;6.30;;
22320;SDS011;11328;53.928;18.522;2023-10-19T00:05:39;15.20;;;6.15;;
22320;SDS011;11328;53.928;18.522;2023-10-19T00:08:08;14.00;;;6.07;;
22320;SDS011;11328;53.928;18.522;2023-10-19T00:10:42;14.68;;;7.35;;
22320;SDS011;11328;53.928;18.522;2023-10-19T00:13:14;14.33;;;8.00;;
22320;SDS011;11328;53.928;18.522;2023-10-19T00:15:42;11.63;;;5.70;;
22320;SDS011;11328;53.928;18.522;2023-10-19T00:18:20;13.35;;;5.38;;
22320;SDS011;11328;53.928;18.522;2023-10-19T00:20:49;10.20;;;4.70;;
22320;SDS011;11328;53.928;18.522;2023-10-19T00:23:19;13.95;;;5.55;;
22320;SDS011;11328;53.928;18.522;2023-10-19T00:25:59;11.50;;;4.43;;
22320;SDS011;11328;53.928;18.522;2023-10-19T00:28:34;8.93;;;4.65;;
22320;SDS011;11328;53.928;18.522;2023-10-19T00:31:02;9.30;;;4.88;;
22320;SDS011;11328;53.928;18.522;2023-10-19T00:33:34;15.50;;;6.70;;
22320;SDS011;11328;53.928;18.522;2023-10-19T00:36:06;18.17;;;7.70;;
22320;SDS011;11328;53.928;18.522;2023-10-19T00:38:38;16.55;;;6.10;;
22320;SDS011;11328;53.928;18.522;2023-10-19T00:41:27;9.95;;;5.18;;
22320;SDS011;11328;53.928;18.522;2023-10-19T00:43:57;11.85;;;5.47;;
22320;SDS011;11328;53.928;18.522;2023-10-19T00:46:39;15.63;;;6.93;;
22320;SDS011;11328;53.928;18.522;2023-10-19T00:49:10;18.88;;;8.80;;
22320;SDS011;11328;53.928;18.522;2023-10-19T00:51:45;12.02;;;5.50;;
22320;SDS011;11328;53.928;18.522;2023-10-19T00:54:39;13.63;;;5.95;;
22320;SDS011;11328;53.928;18.522;2023-10-19T00:57:18;11.70;;;5.80;;
22320;SDS011;11328;53.928;18.522;2023-10-19T00:59:47;12.18;;;5.85;;
22320;SDS011;11328;53.928;18.522;2023-10-19T01:02:20;11.90;;;6.00;;
22320;SDS011;11328;53.928;18.522;2023-10-19T01:04:48;29.48;;;12.93;;
22320;SDS011;11328;53.928;18.522;2023-10-19T01:07:29;23.80;;;11.35;;
22320;SDS011;11328;53.928;18.522;2023-10-19T01:10:00;19.48;;;7.72;;
22320;SDS011;11328;53.928;18.522;2023-10-19T01:12:34;14.20;;;7.07;;
22320;SDS011;11328;53.928;18.522;2023-10-19T01:17:55;11.30;;;5.82;;
22320;SDS011;11328;53.928;18.522;2023-10-19T01:20:28;10.45;;;5.53;;
22320;SDS011;11328;53.928;18.522;2023-10-19T01:22:58;12.45;;;5.43;;
22320;SDS011;11328;53.928;18.522;2023-10-19T01:25:43;15.20;;;5.90;;
22320;SDS011;11328;53.928;18.522;2023-10-19T01:28:21;12.73;;;5.32;;
22320;SDS011;11328;53.928;18.522;2023-10-19T01:30:55;10.10;;;5.25;;
22320;SDS011;11328;53.928;18.522;2023-10-19T01:33:22;10.32;;;5.18;;
22320;SDS011;11328;53.928;18.522;2023-10-19T01:35:49;10.30;;;5.28;;
22320;SDS011;11328;53.928;18.522;2023-10-19T01:38:34;11.95;;;6.05;;
22320;SDS011;11328;53.928;18.522;2023-10-19T01:41:03;12.43;;;6.15;;
22320;SDS011;11328;53.928;18.522;2023-10-19T01:43:51;13.00;;;6.50;;
22320;SDS011;11328;53.928;18.522;2023-10-19T01:46:21;12.82;;;6.45;;
22320;SDS011;11328;53.928;18.522;2023-10-19T01:48:52;12.13;;;6.15;;
22320;SDS011;11328;53.928;18.522;2023-10-19T01:51:23;15.75;;;8.35;;
22320;SDS011;11328;53.928;18.522;2023-10-19T01:53:53;15.68;;;7.55;;
22320;SDS011;11328;53.928;18.522;2023-10-19T01:56:21;12.38;;;6.07;;
22320;SDS011;11328;53.928;18.522;2023-10-19T01:58:51;11.35;;;5.68;;
22320;SDS011;11328;53.928;18.522;2023-10-19T02:01:20;13.20;;;5.85;;
22320;SDS011;11328;53.928;18.522;2023-10-19T02:06:32;10.52;;;5.38;;
22320;SDS011;11328;53.928;18.522;2023-10-19T02:11:53;11.63;;;6.00;;
22320;SDS011;11328;53.928;18.522;2023-10-19T02:14:23;15.93;;;6.97;;
22320;SDS011;11328;53.928;18.522;2023-10-19T02:16:53;14.80;;;7.13;;
22320;SDS011;11328;53.928;18.522;2023-10-19T02:19:24;15.30;;;8.07;;
22320;SDS011;11328;53.928;18.522;2023-10-19T02:21:54;13.95;;;7.57;;
22320;SDS011;11328;53.928;18.522;2023-10-19T02:24:30;13.10;;;6.47;;
22320;SDS011;11328;53.928;18.522;2023-10-19T02:26:59;11.77;;;6.07;;
22320;SDS011;11328;53.928;18.522;2023-10-19T02:29:27;12.50;;;6.03;;
22320;SDS011;11328;53.928;18.522;2023-10-19T02:31:54;10.65;;;5.57;;
22320;SDS011;11328;53.928;18.522;2023-10-19T02:34:23;12.85;;;5.53;;
22320;SDS011;11328;53.928;18.522;2023-10-19T02:36:51;11.93;;;5.70;;
22320;SDS011;11328;53.928;18.522;2023-10-19T02:39:18;13.68;;;6.40;;
22320;SDS011;11328;53.928;18.522;2023-10-19T02:41:46;17.83;;;9.18;;
22320;SDS011;11328;53.928;18.522;2023-10-19T02:44:16;13.75;;;6.38;;
22320;SDS011;11328;53.928;18.522;2023-10-19T02:46:52;13.07;;;6.20;;
22320;SDS011;11328;53.928;18.522;2023-10-19T02:49:35;17.48;;;7.38;;
22320;SDS011;11328;53.928;18.522;2023-10-19T02:52:06;12.43;;;6.18;;
22320;SDS011;11328;53.928;18.522;2023-10-19T02:54:33;12.63;;;5.72;;
22320;SDS011;11328;53.928;18.522;2023-10-19T02:57:01;19.38;;;7.65;;
22320;SDS011;11328;53.928;18.522;2023-10-19T02:59:32;13.95;;;5.97;;
22320;SDS011;11328;53.928;18.522;2023-10-19T03:02:00;14.98;;;6.68;;
22320;SDS011;11328;53.928;18.522;2023-10-19T03:04:37;15.38;;;7.25;;
22320;SDS011;11328;53.928;18.522;2023-10-19T03:07:06;16.92;;;7.43;;
22320;SDS011;11328;53.928;18.522;2023-10-19T03:09:39;12.77;;;6.00;;
22320;SDS011;11328;53.928;18.522;2023-10-19T03:12:15;12.43;;;5.70;;
22320;SDS011;11328;53.928;18.522;2023-10-19T03:14:43;13.07;;;6.38;;
22320;SDS011;11328;53.928;18.522;2023-10-19T03:17:14;14.43;;;7.47;;
22320;SDS011;11328;53.928;18.522;2023-10-19T03:19:42;14.60;;;6.97;;
22320;SDS011;11328;53.928;18.522;2023-10-19T03:22:09;14.48;;;7.55;;
22320;SDS011;11328;53.928;18.522;2023-10-19T03:24:38;11.90;;;6.45;;
22320;SDS011;11328;53.928;18.522;2023-10-19T03:27:13;12.63;;;6.28;;
22320;SDS011;11328;53.928;18.522;2023-10-19T03:29:44;12.85;;;6.93;;
22320;SDS011;11328;53.928;18.522;2023-10-19T03:32:14;16.58;;;7.18;;
22320;SDS011;11328;53.928;18.522;2023-10-19T03:34:42;15.20;;;7.93;;
22320;SDS011;11328;53.928;18.522;2023-10-19T03:37:14;15.18;;;8.38;;
22320;SDS011;11328;53.928;18.522;2023-10-19T03:39:43;23.08;;;11.35;;
22320;SDS011;11328;53.928;18.522;2023-10-19T03:42:12;21.05;;;10.82;;
22320;SDS011;11328;53.928;18.522;2023-10-19T03:44:43;17.45;;;10.30;;
22320;SDS011;11328;53.928;18.522;2023-10-19T03:47:20;19.35;;;10.73;;
22320;SDS011;11328;53.928;18.522;2023-10-19T03:49:51;22.52;;;10.65;;
22320;SDS011;11328;53.928;18.522;2023-10-19T03:52:19;18.60;;;9.55;;
22320;SDS011;11328;53.928;18.522;2023-10-19T03:54:47;20.27;;;10.38;;
22320;SDS011;11328;53.928;18.522;2023-10-19T03:57:16;22.58;;;10.45;;
22320;SDS011;11328;53.928;18.522;2023-10-19T03:59:51;21.52;;;10.40;;
22320;SDS011;11328;53.928;18.522;2023-10-19T04:02:26;20.10;;;10.68;;
22320;SDS011;11328;53.928;18.522;2023-10-19T04:07:24;17.73;;;10.23;;
22320;SDS011;11328;53.928;18.522;2023-10-19T04:09:57;17.40;;;10.13;;
22320;SDS011;11328;53.928;18.522;2023-10-19T04:12:25;19.30;;;10.82;;
22320;SDS011;11328;53.928;18.522;2023-10-19T04:15:02;20.45;;;11.20;;
22320;SDS011;11328;53.928;18.522;2023-10-19T04:17:45;21.58;;;10.95;;
22320;SDS011;11328;53.928;18.522;2023-10-19T04:20:16;19.70;;;11.23;;
22320;SDS011;11328;53.928;18.522;2023-10-19T04:22:44;22.67;;;10.70;;
22320;SDS011;11328;53.928;18.522;2023-10-19T04:25:14;19.17;;;11.30;;
22320;SDS011;11328;53.928;18.522;2023-10-19T04:27:42;19.40;;;11.18;;
22320;SDS011;11328;53.928;18.522;2023-10-19T04:30:10;20.23;;;12.15;;
22320;SDS011;11328;53.928;18.522;2023-10-19T04:32:42;20.63;;;10.73;;
22320;SDS011;11328;53.928;18.522;2023-10-19T04:35:11;20.58;;;11.43;;
22320;SDS011;11328;53.928;18.522;2023-10-19T04:37:41;20.88;;;10.90;;
22320;SDS011;11328;53.928;18.522;2023-10-19T04:40:09;22.77;;;12.20;;
22320;SDS011;11328;53.928;18.522;2023-10-19T04:42:37;23.58;;;12.45;;
22320;SDS011;11328;53.928;18.522;2023-10-19T04:45:05;21.60;;;12.73;;
22320;SDS011;11328;53.928;18.522;2023-10-19T04:47:33;23.48;;;12.32;;
22320;SDS011;11328;53.928;18.522;2023-10-19T04:50:02;22.67;;;12.23;;
22320;SDS011;11328;53.928;18.522;2023-10-19T04:52:30;22.50;;;12.57;;
22320;SDS011;11328;53.928;18.522;2023-10-19T04:54:58;25.00;;;12.73;;
22320;SDS011;11328;53.928;18.522;2023-10-19T04:57:25;21.83;;;13.05;;
22320;SDS011;11328;53.928;18.522;2023-10-19T04:59:52;22.90;;;12.75;;
22320;SDS011;11328;53.928;18.522;2023-10-19T05:02:19;23.10;;;12.55;;
22320;SDS011;11328;53.928;18.522;2023-10-19T05:04:47;24.20;;;13.20;;
22320;SDS011;11328;53.928;18.522;2023-10-19T05:07:14;23.23;;;13.18;;
22320;SDS011;11328;53.928;18.522;2023-10-19T05:09:45;23.50;;;13.43;;
22320;SDS011;11328;53.928;18.522;2023-10-19T05:12:16;22.73;;;13.60;;
22320;SDS011;11328;53.928;18.522;2023-10-19T05:14:43;26.77;;;13.23;;
22320;SDS011;11328;53.928;18.522;2023-10-19T05:17:10;27.15;;;13.70;;
22320;SDS011;11328;53.928;18.522;2023-10-19T05:19:38;23.05;;;13.40;;
22320;SDS011;11328;53.928;18.522;2023-10-19T05:22:06;23.70;;;13.73;;
22320;SDS011;11328;53.928;18.522;2023-10-19T05:24:35;23.70;;;12.70;;
22320;SDS011;11328;53.928;18.522;2023-10-19T05:27:02;21.48;;;13.38;;
22320;SDS011;11328;53.928;18.522;2023-10-19T05:29:33;24.30;;;13.00;;
22320;SDS011;11328;53.928;18.522;2023-10-19T05:32:00;23.65;;;13.10;;
22320;SDS011;11328;53.928;18.522;2023-10-19T05:34:28;21.42;;;12.30;;
22320;SDS011;11328;53.928;18.522;2023-10-19T05:36:59;23.40;;;12.82;;
22320;SDS011;11328;53.928;18.522;2023-10-19T05:39:28;22.05;;;12.30;;
22320;SDS011;11328;53.928;18.522;2023-10-19T05:41:57;23.33;;;12.32;;
22320;SDS011;11328;53.928;18.522;2023-10-19T05:44:30;23.40;;;12.38;;
22320;SDS011;11328;53.928;18.522;2023-10-19T05:46:58;25.75;;;13.02;;
22320;SDS011;11328;53.928;18.522;2023-10-19T05:49:27;24.30;;;12.95;;
22320;SDS011;11328;53.928;18.522;2023-10-19T05:51:57;21.33;;;13.00;;
22320;SDS011;11328;53.928;18.522;2023-10-19T05:54:25;22.25;;;12.85;;
22320;SDS011;11328;53.928;18.522;2023-10-19T05:56:53;23.23;;;13.45;;
22320;SDS011;11328;53.928;18.522;2023-10-19T05:59:20;21.25;;;13.23;;
22320;SDS011;11328;53.928;18.522;2023-10-19T06:01:47;20.55;;;12.43;;
22320;SDS011;11328;53.928;18.522;2023-10-19T06:04:15;23.05;;;12.77;;
22320;SDS011;11328;53.928;18.522;2023-10-19T06:06:57;21.13;;;12.30;;
22320;SDS011;11328;53.928;18.522;2023-10-19T06:09:24;23.38;;;12.05;;
22320;SDS011;11328;53.928;18.522;2023-10-19T06:11:55;18.95;;;11.23;;
22320;SDS011;11328;53.928;18.522;2023-10-19T06:14:23;20.25;;;11.80;;
22320;SDS011;11328;53.928;18.522;2023-10-19T06:16:50;18.90;;;11.75;;
22320;SDS011;11328;53.928;18.522;2023-10-19T06:19:19;19.75;;;12.20;;
22320;SDS011;11328;53.928;18.522;2023-10-19T06:21:46;19.23;;;12.27;;
22320;SDS011;11328;53.928;18.522;2023-10-19T06:24:13;20.08;;;11.30;;
22320;SDS011;11328;53.928;18.522;2023-10-19T06:26:42;21.60;;;11.23;;
22320;SDS011;11328;53.928;18.522;2023-10-19T06:29:09;18.35;;;10.98;;
22320;SDS011;11328;53.928;18.522;2023-10-19T06:31:36;18.90;;;11.57;;
22320;SDS011;11328;53.928;18.522;2023-10-19T06:34:04;19.33;;;10.90;;
22320;SDS011;11328;53.928;18.522;2023-10-19T06:36:31;20.13;;;11.15;;
22320;SDS011;11328;53.928;18.522;2023-10-19T06:38:58;16.95;;;10.98;;
22320;SDS011;11328;53.928;18.522;2023-10-19T06:41:25;18.52;;;11.23;;
22320;SDS011;11328;53.928;18.522;2023-10-19T06:43:52;15.93;;;11.05;;
22320;SDS011;11328;53.928;18.522;2023-10-19T06:46:19;19.10;;;11.80;;
22320;SDS011;11328;53.928;18.522;2023-10-19T06:48:47;18.95;;;11.95;;
22320;SDS011;11328;53.928;18.522;2023-10-19T06:51:14;17.38;;;12.13;;
22320;SDS011;11328;53.928;18.522;2023-10-19T06:53:43;18.25;;;11.98;;
22320;SDS011;11328;53.928;18.522;2023-10-19T06:56:10;17.67;;;12.35;;
22320;SDS011;11328;53.928;18.522;2023-10-19T06:58:37;21.08;;;13.05;;
22320;SDS011;11328;53.928;18.522;2023-10-19T07:01:07;19.23;;;12.65;;
22320;SDS011;11328;53.928;18.522;2023-10-19T07:03:35;19.30;;;11.60;;
22320;SDS011;11328;53.928;18.522;2023-10-19T07:06:03;20.33;;;12.63;;
22320;SDS011;11328;53.928;18.522;2023-10-19T07:08:38;20.40;;;11.82;;
22320;SDS011;11328;53.928;18.522;2023-10-19T07:11:08;21.52;;;11.27;;
22320;SDS011;11328;53.928;18.522;2023-10-19T07:13:35;17.02;;;10.98;;
22320;SDS011;11328;53.928;18.522;2023-10-19T07:16:02;17.10;;;11.27;;
22320;SDS011;11328;53.928;18.522;2023-10-19T07:18:30;17.25;;;10.80;;
22320;SDS011;11328;53.928;18.522;2023-10-19T07:20:57;16.67;;;10.40;;
22320;SDS011;11328;53.928;18.522;2023-10-19T07:23:31;18.35;;;10.60;;
22320;SDS011;11328;53.928;18.522;2023-10-19T07:25:58;18.33;;;9.73;;
22320;SDS011;11328;53.928;18.522;2023-10-19T07:28:28;15.73;;;9.95;;
22320;SDS011;11328;53.928;18.522;2023-10-19T07:30:56;17.95;;;9.77;;
22320;SDS011;11328;53.928;18.522;2023-10-19T07:33:26;15.23;;;9.05;;
22320;SDS011;11328;53.928;18.522;2023-10-19T07:35:54;13.13;;;8.27;;
22320;SDS011;11328;53.928;18.522;2023-10-19T07:38:22;14.80;;;9.32;;
22320;SDS011;11328;53.928;18.522;2023-10-19T07:40:50;14.57;;;8.73;;
22320;SDS011;11328;53.928;18.522;2023-10-19T07:43:20;14.88;;;8.68;;
22320;SDS011;11328;53.928;18.522;2023-10-19T07:45:49;13.82;;;8.90;;
22320;SDS011;11328;53.928;18.522;2023-10-19T07:48:16;15.48;;;8.68;;
22320;SDS011;11328;53.928;18.522;2023-10-19T07:50:43;15.60;;;9.98;;
22320;SDS011;11328;53.928;18.522;2023-10-19T07:53:11;13.45;;;8.68;;
22320;SDS011;11328;53.928;18.522;2023-10-19T07:55:38;13.73;;;8.45;;
22320;SDS011;11328;53.928;18.522;2023-10-19T07:58:06;14.43;;;8.52;;
22320;SDS011;11328;53.928;18.522;2023-10-19T08:00:33;14.30;;;8.60;;
22320;SDS011;11328;53.928;18.522;2023-10-19T08:03:01;15.13;;;8.60;;
22320;SDS011;11328;53.928;18.522;2023-10-19T08:05:31;14.65;;;8.52;;
22320;SDS011;11328;53.928;18.522;2023-10-19T08:08:00;15.15;;;8.85;;
22320;SDS011;11328;53.928;18.522;2023-10-19T08:10:30;14.43;;;8.45;;
22320;SDS011;11328;53.928;18.522;2023-10-19T08:12:58;17.27;;;9.15;;
22320;SDS011;11328;53.928;18.522;2023-10-19T08:15:26;15.82;;;8.30;;
22320;SDS011;11328;53.928;18.522;2023-10-19T08:17:57;14.13;;;8.40;;
22320;SDS011;11328;53.928;18.522;2023-10-19T08:20:24;15.35;;;8.68;;
22320;SDS011;11328;53.928;18.522;2023-10-19T08:22:57;13.25;;;8.20;;
22320;SDS011;11328;53.928;18.522;2023-10-19T08:25:28;16.02;;;8.55;;
22320;SDS011;11328;53.928;18.522;2023-10-19T08:28:13;13.88;;;8.32;;
22320;SDS011;11328;53.928;18.522;2023-10-19T08:30:41;13.15;;;8.45;;
22320;SDS011;11328;53.928;18.522;2023-10-19T08:33:08;13.57;;;8.70;;
22320;SDS011;11328;53.928;18.522;2023-10-19T08:35:35;13.75;;;8.23;;
22320;SDS011;11328;53.928;18.522;2023-10-19T08:38:02;13.68;;;8.50;;
22320;SDS011;11328;53.928;18.522;2023-10-19T08:40:37;13.95;;;7.90;;
22320;SDS011;11328;53.928;18.522;2023-10-19T08:43:06;12.23;;;7.43;;
22320;SDS011;11328;53.928;18.522;2023-10-19T08:45:39;13.88;;;8.15;;
22320;SDS011;11328;53.928;18.522;2023-10-19T08:48:08;12.05;;;7.30;;
22320;SDS011;11328;53.928;18.522;2023-10-19T08:50:35;11.55;;;7.38;;
22320;SDS011;11328;53.928;18.522;2023-10-19T08:53:05;12.57;;;7.43;;
22320;SDS011;11328;53.928;18.522;2023-10-19T08:55:35;12.32;;;7.03;;
22320;SDS011;11328;53.928;18.522;2023-10-19T08:58:15;13.02;;;7.38;;
22320;SDS011;11328;53.928;18.522;2023-10-19T09:03:16;11.13;;;7.18;;
22320;SDS011;11328;53.928;18.522;2023-10-19T09:05:44;11.50;;;7.22;;
22320;SDS011;11328;53.928;18.522;2023-10-19T09:08:13;10.30;;;6.70;;
22320;SDS011;11328;53.928;18.522;2023-10-19T09:10:43;12.35;;;7.25;;
22320;SDS011;11328;53.928;18.522;2023-10-19T09:13:12;12.15;;;7.13;;
22320;SDS011;11328;53.928;18.522;2023-10-19T09:15:42;11.10;;;7.10;;
22320;SDS011;11328;53.928;18.522;2023-10-19T09:18:22;12.45;;;7.03;;
22320;SDS011;11328;53.928;18.522;2023-10-19T09:20:55;11.20;;;7.32;;
22320;SDS011;11328;53.928;18.522;2023-10-19T09:23:29;16.38;;;7.00;;
22320;SDS011;11328;53.928;18.522;2023-10-19T09:25:57;11.15;;;6.88;;
22320;SDS011;11328;53.928;18.522;2023-10-19T09:28:30;11.63;;;6.78;;
22320;SDS011;11328;53.928;18.522;2023-10-19T09:31:01;10.73;;;6.60;;
22320;SDS011;11328;53.928;18.522;2023-10-19T09:33:30;10.50;;;6.43;;
22320;SDS011;11328;53.928;18.522;2023-10-19T09:36:01;10.52;;;6.43;;
22320;SDS011;11328;53.928;18.522;2023-10-19T09:38:46;9.93;;;6.00;;
22320;SDS011;11328;53.928;18.522;2023-10-19T09:41:20;9.48;;;5.90;;
22320;SDS011;11328;53.928;18.522;2023-10-19T09:43:49;9.07;;;5.13;;
22320;SDS011;11328;53.928;18.522;2023-10-19T09:46:21;9.43;;;4.90;;
22320;SDS011;11328;53.928;18.522;2023-10-19T09:48:52;8.32;;;5.00;;
22320;SDS011;11328;53.928;18.522;2023-10-19T09:51:19;8.00;;;4.38;;
22320;SDS011;11328;53.928;18.522;2023-10-19T09:53:59;8.65;;;4.65;;
22320;SDS011;11328;53.928;18.522;2023-10-19T09:56:38;8.82;;;4.82;;
22320;SDS011;11328;53.928;18.522;2023-10-19T09:59:22;8.23;;;4.50;;
22320;SDS011;11328;53.928;18.522;2023-10-19T10:04:52;6.38;;;3.70;;
22320;SDS011;11328;53.928;18.522;2023-10-19T10:07:19;6.93;;;4.03;;
22320;SDS011;11328;53.928;18.522;2023-10-19T10:10:06;7.63;;;4.20;;
22320;SDS011;11328;53.928;18.522;2023-10-19T10:12:34;8.90;;;4.10;;
22320;SDS011;11328;53.928;18.522;2023-10-19T10:15:05;7.75;;;4.13;;
22320;SDS011;11328;53.928;18.522;2023-10-19T10:17:37;7.97;;;4.20;;
22320;SDS011;11328;53.928;18.522;2023-10-19T10:22:43;8.35;;;4.13;;
22320;SDS011;11328;53.928;18.522;2023-10-19T10:25:27;10.55;;;4.00;;
22320;SDS011;11328;53.928;18.522;2023-10-19T10:27:55;7.05;;;3.83;;
22320;SDS011;11328;53.928;18.522;2023-10-19T10:30:23;7.82;;;3.38;;
22320;SDS011;11328;53.928;18.522;2023-10-19T10:32:51;6.82;;;3.50;;
22320;SDS011;11328;53.928;18.522;2023-10-19T10:38:08;7.03;;;3.55;;
22320;SDS011;11328;53.928;18.522;2023-10-19T10:43:16;6.70;;;3.50;;
22320;SDS011;11328;53.928;18.522;2023-10-19T10:45:45;7.57;;;3.88;;
22320;SDS011;11328;53.928;18.522;2023-10-19T10:48:15;7.82;;;3.70;;
22320;SDS011;11328;53.928;18.522;2023-10-19T10:50:45;6.85;;;3.53;;
22320;SDS011;11328;53.928;18.522;2023-10-19T10:53:13;8.05;;;3.40;;
22320;SDS011;11328;53.928;18.522;2023-10-19T10:55:44;8.02;;;3.17;;
22320;SDS011;11328;53.928;18.522;2023-10-19T10:58:15;11.38;;;3.42;;
22320;SDS011;11328;53.928;18.522;2023-10-19T11:00:46;6.47;;;3.50;;
22320;SDS011;11328;53.928;18.522;2023-10-19T11:03:15;6.93;;;2.83;;
22320;SDS011;11328;53.928;18.522;2023-10-19T11:05:42;6.55;;;3.10;;
22320;SDS011;11328;53.928;18.522;2023-10-19T11:08:12;5.35;;;3.13;;
22320;SDS011;11328;53.928;18.522;2023-10-19T11:10:45;5.63;;;3.00;;
22320;SDS011;11328;53.928;18.522;2023-10-19T11:13:13;4.70;;;2.67;;
22320;SDS011;11328;53.928;18.522;2023-10-19T11:15:49;4.85;;;2.55;;
22320;SDS011;11328;53.928;18.522;2023-10-19T11:18:31;4.97;;;2.70;;
22320;SDS011;11328;53.928;18.522;2023-10-19T11:21:07;5.30;;;2.80;;
22320;SDS011;11328;53.928;18.522;2023-10-19T11:23:37;6.47;;;2.90;;
22320;SDS011;11328;53.928;18.522;2023-10-19T11:26:08;4.45;;;2.60;;
22320;SDS011;11328;53.928;18.522;2023-10-19T11:28:37;7.15;;;2.88;;
22320;SDS011;11328;53.928;18.522;2023-10-19T11:33:41;4.82;;;2.80;;
22320;SDS011;11328;53.928;18.522;2023-10-19T11:36:11;8.40;;;4.38;;
22320;SDS011;11328;53.928;18.522;2023-10-19T11:38:42;7.00;;;3.22;;
22320;SDS011;11328;53.928;18.522;2023-10-19T11:41:10;7.68;;;3.13;;
22320;SDS011;11328;53.928;18.522;2023-10-19T11:43:40;8.93;;;4.95;;
22320;SDS011;11328;53.928;18.522;2023-10-19T11:46:09;7.07;;;3.00;;
22320;SDS011;11328;53.928;18.522;2023-10-19T11:48:49;5.07;;;3.00;;
22320;SDS011;11328;53.928;18.522;2023-10-19T11:51:16;5.15;;;3.00;;
22320;SDS011;11328;53.928;18.522;2023-10-19T11:53:43;6.20;;;3.08;;
22320;SDS011;11328;53.928;18.522;2023-10-19T11:56:10;4.28;;;2.80;;
22320;SDS011;11328;53.928;18.522;2023-10-19T11:58:39;5.28;;;2.80;;
22320;SDS011;11328;53.928;18.522;2023-10-19T12:01:09;5.03;;;2.80;;
22320;SDS011;11328;53.928;18.522;2023-10-19T12:03:40;7.47;;;2.90;;
22320;SDS011;11328;53.928;18.522;2023-10-19T12:06:08;6.18;;;3.00;;
22320;SDS011;11328;53.928;18.522;2023-10-19T12:08:37;7.28;;;3.70;;
22320;SDS011;11328;53.928;18.522;2023-10-19T12:11:05;8.52;;;3.97;;
22320;SDS011;11328;53.928;18.522;2023-10-19T12:13:43;7.40;;;4.22;;
22320;SDS011;11328;53.928;18.522;2023-10-19T12:16:11;8.32;;;4.68;;
22320;SDS011;11328;53.928;18.522;2023-10-19T12:18:42;9.77;;;4.50;;
22320;SDS011;11328;53.928;18.522;2023-10-19T12:21:10;8.93;;;4.85;;
22320;SDS011;11328;53.928;18.522;2023-10-19T12:23:41;8.18;;;5.30;;
22320;SDS011;11328;53.928;18.522;2023-10-19T12:26:10;8.10;;;5.20;;
22320;SDS011;11328;53.928;18.522;2023-10-19T12:28:38;9.80;;;5.50;;
22320;SDS011;11328;53.928;18.522;2023-10-19T12:31:07;8.68;;;5.68;;
22320;SDS011;11328;53.928;18.522;2023-10-19T12:33:38;13.95;;;8.20;;
22320;SDS011;11328;53.928;18.522;2023-10-19T12:36:05;13.18;;;7.70;;
22320;SDS011;11328;53.928;18.522;2023-10-19T12:38:48;17.42;;;8.48;;
22320;SDS011;11328;53.928;18.522;2023-10-19T12:41:16;13.15;;;7.65;;
22320;SDS011;11328;53.928;18.522;2023-10-19T12:43:44;15.55;;;7.95;;
22320;SDS011;11328;53.928;18.522;2023-10-19T12:46:15;12.23;;;7.40;;
22320;SDS011;11328;53.928;18.522;2023-10-19T12:48:45;13.95;;;8.77;;
22320;SDS011;11328;53.928;18.522;2023-10-19T12:51:14;12.40;;;7.65;;
22320;SDS011;11328;53.928;18.522;2023-10-19T12:53:44;12.30;;;8.05;;
22320;SDS011;11328;53.928;18.522;2023-10-19T12:56:12;11.52;;;7.50;;
22320;SDS011;11328;53.928;18.522;2023-10-19T12:58:39;20.27;;;11.25;;
22320;SDS011;11328;53.928;18.522;2023-10-19T13:01:07;18.08;;;10.48;;
22320;SDS011;11328;53.928;18.522;2023-10-19T13:03:43;14.82;;;9.88;;
22320;SDS011;11328;53.928;18.522;2023-10-19T13:06:13;12.38;;;8.02;;
22320;SDS011;11328;53.928;18.522;2023-10-19T13:08:41;13.82;;;8.20;;
22320;SDS011;11328;53.928;18.522;2023-10-19T13:11:08;11.25;;;7.60;;
22320;SDS011;11328;53.928;18.522;2023-10-19T13:13:44;12.25;;;7.72;;
22320;SDS011;11328;53.928;18.522;2023-10-19T13:16:14;13.80;;;7.32;;
22320;SDS011;11328;53.928;18.522;2023-10-19T13:18:42;10.98;;;6.53;;
22320;SDS011;11328;53.928;18.522;2023-10-19T13:21:10;11.38;;;7.35;;
22320;SDS011;11328;53.928;18.522;2023-10-19T13:23:53;12.65;;;6.90;;
22320;SDS011;11328;53.928;18.522;2023-10-19T13:26:20;11.35;;;6.45;;
22320;SDS011;11328;53.928;18.522;2023-10-19T13:28:50;10.68;;;5.93;;
22320;SDS011;11328;53.928;18.522;2023-10-19T13:31:19;11.85;;;6.53;;
22320;SDS011;11328;53.928;18.522;2023-10-19T13:33:48;10.57;;;6.38;;
22320;SDS011;11328;53.928;18.522;2023-10-19T13:36:15;11.63;;;6.70;;
22320;SDS011;11328;53.928;18.522;2023-10-19T13:38:42;10.65;;;6.03;;
22320;SDS011;11328;53.928;18.522;2023-10-19T13:41:10;12.00;;;6.45;;
22320;SDS011;11328;53.928;18.522;2023-10-19T13:43:41;10.27;;;6.03;;
22320;SDS011;11328;53.928;18.522;2023-10-19T13:46:11;9.35;;;6.30;;
22320;SDS011;11328;53.928;18.522;2023-10-19T13:48:38;10.70;;;5.82;;
22320;SDS011;11328;53.928;18.522;2023-10-19T13:51:06;11.07;;;5.75;;
22320;SDS011;11328;53.928;18.522;2023-10-19T13:53:40;10.07;;;5.82;;
22320;SDS011;11328;53.928;18.522;2023-10-19T13:56:08;11.73;;;5.75;;
22320;SDS011;11328;53.928;18.522;2023-10-19T13:58:37;13.32;;;5.63;;
22320;SDS011;11328;53.928;18.522;2023-10-19T14:01:08;10.88;;;5.72;;
22320;SDS011;11328;53.928;18.522;2023-10-19T14:03:39;8.77;;;5.43;;
22320;SDS011;11328;53.928;18.522;2023-10-19T14:06:11;9.18;;;5.30;;
22320;SDS011;11328;53.928;18.522;2023-10-19T14:08:43;15.52;;;5.18;;
22320;SDS011;11328;53.928;18.522;2023-10-19T14:11:10;8.90;;;4.95;;
22320;SDS011;11328;53.928;18.522;2023-10-19T14:13:37;11.10;;;5.00;;
22320;SDS011;11328;53.928;18.522;2023-10-19T14:16:09;9.25;;;5.13;;
22320;SDS011;11328;53.928;18.522;2023-10-19T14:18:36;9.45;;;5.05;;
22320;SDS011;11328;53.928;18.522;2023-10-19T14:21:24;10.30;;;5.50;;
22320;SDS011;11328;53.928;18.522;2023-10-19T14:23:53;10.75;;;5.38;;
22320;SDS011;11328;53.928;18.522;2023-10-19T14:26:20;9.95;;;5.00;;
22320;SDS011;11328;53.928;18.522;2023-10-19T14:28:47;8.27;;;4.90;;
22320;SDS011;11328;53.928;18.522;2023-10-19T14:31:15;9.40;;;5.13;;
22320;SDS011;11328;53.928;18.522;2023-10-19T14:33:43;8.35;;;4.97;;
22320;SDS011;11328;53.928;18.522;2023-10-19T14:36:10;9.57;;;5.32;;
22320;SDS011;11328;53.928;18.522;2023-10-19T14:38:37;10.88;;;4.97;;
22320;SDS011;11328;53.928;18.522;2023-10-19T14:41:05;10.25;;;4.53;;
22320;SDS011;11328;53.928;18.522;2023-10-19T14:43:36;10.43;;;5.03;;
22320;SDS011;11328;53.928;18.522;2023-10-19T14:46:06;9.52;;;5.20;;
22320;SDS011;11328;53.928;18.522;2023-10-19T14:48:34;8.65;;;4.65;;
22320;SDS011;11328;53.928;18.522;2023-10-19T14:51:02;9.82;;;5.15;;
22320;SDS011;11328;53.928;18.522;2023-10-19T14:53:29;11.43;;;5.35;;
22320;SDS011;11328;53.928;18.522;2023-10-19T14:55:57;11.10;;;4.72;;
22320;SDS011;11328;53.928;18.522;2023-10-19T14:58:24;9.48;;;5.13;;
22320;SDS011;11328;53.928;18.522;2023-10-19T15:00:55;9.38;;;4.88;;
22320;SDS011;11328;53.928;18.522;2023-10-19T15:03:23;9.20;;;5.00;;
22320;SDS011;11328;53.928;18.522;2023-10-19T15:05:51;11.35;;;5.32;;